Time;durP1;ratioP1;P1;durP2;ratioP2;P2;SDS_P1;SDS_P2;PMS_P1;PMS_P2;Temp;Humidity;BMP_temperature;BMP_pressure;BME280_temperature;BME280_humidity;BME280_pressure;Samples;Min_cycle;Max_cycle;Signal;HPM_P1;HPM_P2
2022/02/02 00:01:14;;;;;;;1999.90;999.90;;;;;;;4.36;100.00;99536.31;5060690;28;20135;-82
2022/02/02 00:03:46;;;;;;;1999.90;999.90;;;;;;;4.36;100.00;99539.00;5058452;28;20048;-82
2022/02/02 00:06:24;;;;;;;;;;;;;;;4.35;100.00;99532.03;5062883;28;20041;-82
2022/02/02 00:09:02;;;;;;;1999.90;999.90;;;;;;;4.29;100.00;99524.19;5060155;28;19920;-82
2022/02/02 00:12:10;;;;;;;1999.90;999.90;;;;;;;4.38;100.00;99536.88;5060138;28;20104;-82
2022/02/02 00:14:58;;;;;;;1999.90;999.90;;;;;;;4.41;100.00;99543.63;5059858;28;20056;-82
2022/02/02 00:17:43;;;;;;;1999.90;999.90;;;;;;;4.26;100.00;99526.34;5062076;28;20410;-82
2022/02/02 00:20:24;;;;;;;1999.90;999.90;;;;;;;4.32;100.00;99526.34;5058458;28;20092;-83
2022/02/02 00:23:01;;;;;;;1999.90;999.90;;;;;;;4.36;100.00;99533.63;5062048;28;20037;-82
2022/02/02 00:25:34;;;;;;;1999.90;999.90;;;;;;;4.35;100.00;99534.72;5065308;28;20056;-82
2022/02/02 00:28:07;;;;;;;1999.90;999.90;;;;;;;4.48;100.00;99536.06;5065766;28;20055;-82
2022/02/02 00:30:41;;;;;;;1999.90;999.90;;;;;;;4.44;100.00;99543.06;5065548;28;20409;-82
2022/02/02 00:33:21;;;;;;;1999.90;999.90;;;;;;;4.31;100.00;99517.47;5061924;28;20041;-81
2022/02/02 00:36:00;;;;;;;1999.90;999.90;;;;;;;4.28;100.00;99530.66;5054007;28;20037;-82
2022/02/02 00:38:34;;;;;;;1999.90;999.90;;;;;;;4.33;100.00;99544.94;5060935;28;20036;-82
2022/02/02 00:41:08;;;;;;;1999.90;999.90;;;;;;;4.35;100.00;99548.19;5056364;28;20049;-82
2022/02/02 00:43:45;;;;;;;1999.90;999.90;;;;;;;4.41;100.00;99557.88;5061416;28;20438;-82
2022/02/02 00:46:23;;;;;;;1999.90;999.90;;;;;;;4.39;100.00;99546.59;5058777;28;20053;-83
2022/02/02 00:49:00;;;;;;;;;;;;;;;4.43;100.00;99544.97;5060257;28;20053;-82
2022/02/02 00:51:40;;;;;;;1999.90;999.90;;;;;;;4.34;100.00;99554.66;5062469;28;19920;-82
2022/02/02 00:54:11;;;;;;;1999.90;999.90;;;;;;;4.36;100.00;99543.59;5055524;28;20057;-82
2022/02/02 00:56:40;;;;;;;1999.90;999.90;;;;;;;4.41;100.00;99547.09;5060986;28;20060;-82
2022/02/02 00:59:09;;;;;;;1999.90;999.90;;;;;;;4.32;100.00;99537.91;5077425;28;20044;-82
2022/02/02 01:01:43;;;;;;;1999.90;999.90;;;;;;;4.31;100.00;99548.97;5060356;28;20151;-81
2022/02/02 01:04:16;;;;;;;1999.90;999.90;;;;;;;4.18;100.00;99529.53;5061333;28;20040;-82
2022/02/02 01:06:57;;;;;;;1999.90;999.90;;;;;;;4.26;100.00;99547.09;5064168;28;20469;-82
2022/02/02 01:09:34;;;;;;;1999.90;999.90;;;;;;;4.28;100.00;99542.25;5060780;28;20048;-81
2022/02/02 01:18:25;;;;;;;1948.95;999.90;;;;;;;4.35;100.00;99563.53;5061975;28;20044;-80
2022/02/02 01:21:01;;;;;;;1858.20;999.90;;;;;;;4.34;100.00;99568.09;5058810;28;20060;-81
2022/02/02 01:29:12;;;;;;;1640.80;999.90;;;;;;;4.31;100.00;99562.44;5066717;28;20048;-82
2022/02/02 01:31:45;;;;;;;1561.05;999.90;;;;;;;4.29;100.00;99581.56;5074268;28;20049;-82
2022/02/02 01:34:13;;;;;;;1533.07;999.90;;;;;;;4.30;100.00;99595.84;5067292;28;20066;-82
2022/02/02 01:36:46;;;;;;;1492.88;999.90;;;;;;;4.22;100.00;99584.50;5065930;28;20079;-82
2022/02/02 01:39:24;;;;;;;1426.70;999.90;;;;;;;4.26;100.00;99601.75;5056814;28;20060;-82
2022/02/02 01:41:59;;;;;;;1412.75;999.90;;;;;;;4.20;100.00;99605.50;5065351;28;20044;-81
2022/02/02 01:44:36;;;;;;;1369.43;999.90;;;;;;;4.17;100.00;99597.13;5071079;28;20041;-81
2022/02/02 01:47:11;;;;;;;1368.45;999.90;;;;;;;4.16;100.00;99582.06;5060338;28;20056;-81
2022/02/02 01:50:17;;;;;;;1365.68;999.90;;;;;;;4.22;100.00;99603.34;5061645;28;20048;-81
2022/02/02 01:53:08;;;;;;;1333.63;999.90;;;;;;;4.26;100.00;99609.03;5061291;28;20051;-82
2022/02/02 01:55:43;;;;;;;1333.47;999.90;;;;;;;4.18;100.00;99629.19;5072683;28;20044;-81
2022/02/02 01:58:35;;;;;;;1301.90;999.90;;;;;;;4.16;100.00;99619.78;5067646;28;20044;-82
2022/02/02 02:01:06;;;;;;;1311.65;999.90;;;;;;;4.22;100.00;99613.31;5070921;28;20048;-82
2022/02/02 02:03:40;;;;;;;1320.88;999.90;;;;;;;4.14;100.00;99617.31;5060929;28;20040;-81
2022/02/02 02:06:13;;;;;;;1312.38;999.90;;;;;;;4.20;100.00;99626.25;5060639;28;20048;-81
2022/02/02 02:08:47;;;;;;;1292.22;999.90;;;;;;;4.19;100.00;99630.00;5066685;28;20685;-83
2022/02/02 02:11:21;;;;;;;1298.45;999.90;;;;;;;4.22;100.00;99646.44;5063559;28;20045;-82
2022/02/02 02:14:34;;;;;;;1279.60;999.90;;;;;;;4.22;100.00;99649.13;5061422;28;20037;-82
2022/02/02 02:16:54;;;;;;;1288.80;999.90;;;;;;;4.23;100.00;99644.56;5065500;28;20048;-82
2022/02/02 02:19:27;;;;;;;1280.78;999.90;;;;;;;4.19;100.00;99638.88;5062496;28;20072;-83
2022/02/02 02:22:00;;;;;;;1271.28;999.90;;;;;;;4.12;100.00;99657.19;5069943;28;20037;-82
2022/02/02 02:24:29;;;;;;;1262.10;999.90;;;;;;;4.17;100.00;99641.06;5065705;28;20045;-82
2022/02/02 02:27:03;;;;;;;1253.05;999.90;;;;;;;4.18;100.00;99650.72;5069589;28;20045;-82
2022/02/02 02:29:53;;;;;;;1264.45;999.90;;;;;;;4.06;100.00;99631.28;5062614;28;20057;-83
2022/02/02 02:32:49;;;;;;;1244.57;999.90;;;;;;;4.18;100.00;99645.34;5066771;28;20049;-82
2022/02/02 02:35:43;;;;;;;1248.85;999.90;;;;;;;4.15;100.00;99645.88;5067736;28;20056;-81
2022/02/02 02:38:43;;;;;;;1255.47;999.90;;;;;;;4.14;100.00;99644.25;5062608;28;20585;-82
2022/02/02 02:55:53;;;;;;;1257.47;999.90;;;;;;;4.10;100.00;99667.38;5021050;28;20044;-80
2022/02/02 03:01:34;;;;;;;1246.18;999.90;;;;;;;4.06;100.00;99656.34;5070078;28;20424;-82
2022/02/02 03:29:59;;;;;;;1096.05;999.90;;;;;;;4.07;100.00;99652.59;5063981;28;20040;-80
2022/02/02 03:49:19;;;;;;;;;;;;;;;4.16;100.00;99671.72;5058140;28;20048;-82
2022/02/02 03:49:52;;;;;;;879.15;818.53;;;;;;;4.12;100.00;99686.78;5059033;28;20045;-81
2022/02/02 03:53:04;;;;;;;794.28;740.92;;;;;;;4.21;100.00;99689.78;5064861;28;20382;-82
2022/02/02 03:55:35;;;;;;;509.60;477.58;;;;;;;4.23;100.00;99684.97;5060495;28;20056;-81
2022/02/02 03:58:22;;;;;;;319.83;302.15;;;;;;;4.10;100.00;99686.22;5070455;28;20055;-81
2022/02/02 04:01:16;;;;;;;396.20;372.92;;;;;;;4.19;100.00;99706.22;5069735;28;20063;-81
2022/02/02 04:06:56;;;;;;;443.55;416.88;;;;;;;4.11;100.00;99687.06;5053814;28;20273;-81
2022/02/02 04:09:33;;;;;;;388.20;365.23;;;;;;;4.13;100.00;99688.41;5057868;28;20053;-80
2022/02/02 04:12:15;;;;;;;365.83;344.77;;;;;;;4.14;100.00;99702.69;5055307;28;20057;-81
2022/02/02 04:17:57;;;;;;;217.98;206.32;;;;;;;4.24;100.00;99690.09;5038852;28;20072;-81
2022/02/02 04:51:58;;;;;;;116.03;110.03;;;;;;;4.22;100.00;99713.75;5058216;28;20055;-81
2022/02/02 04:54:33;;;;;;;112.28;106.47;;;;;;;4.28;100.00;99714.63;5064907;28;20056;-83
2022/02/02 05:00:23;;;;;;;121.57;115.28;;;;;;;4.28;100.00;99738.03;5067501;28;20063;-81
2022/02/02 05:06:02;;;;;;;109.47;103.78;;;;;;;4.27;100.00;99748.00;5058681;28;20037;-82
2022/02/02 05:08:42;;;;;;;98.07;92.97;;;;;;;4.27;100.00;99756.09;5063325;28;20040;-81
2022/02/02 05:11:33;;;;;;;98.65;93.53;;;;;;;4.22;100.00;99756.06;5061423;28;20053;-82
2022/02/02 05:17:15;;;;;;;89.78;85.07;;;;;;;4.14;100.00;99786.16;5062384;28;20043;-82
2022/02/02 05:20:16;;;;;;;76.38;72.28;;;;;;;4.09;100.00;99763.50;5065277;28;20498;-81
2022/02/02 05:48:50;;;;;;;97.53;92.43;;;;;;;4.04;100.00;99827.28;5059304;28;20032;-81
2022/02/02 05:51:29;;;;;;;113.18;107.35;;;;;;;4.00;100.00;99818.09;5064133;28;20053;-81
2022/02/02 05:54:06;;;;;;;100.63;95.38;;;;;;;4.11;100.00;99849.41;5058354;28;20049;-81
2022/02/02 05:56:40;;;;;;;81.28;76.97;;;;;;;4.11;100.00;99835.97;5055114;28;20036;-82
2022/02/02 05:59:17;;;;;;;71.47;67.68;;;;;;;4.12;100.00;99842.97;5074073;28;20437;-82
2022/02/02 06:01:51;;;;;;;76.68;72.60;;;;;;;4.13;100.00;99860.75;5070034;28;20056;-81
2022/02/02 06:04:28;;;;;;;66.22;62.67;;;;;;;4.09;100.00;99886.56;5067596;28;20049;-80
2022/02/02 06:07:02;;;;;;;63.70;60.30;;;;;;;4.03;100.00;99866.88;5056697;28;20044;-81
2022/02/02 06:09:38;;;;;;;58.83;55.67;;;;;;;4.13;100.00;99890.38;5054282;28;20041;-81
2022/02/02 06:12:08;;;;;;;53.08;50.28;;;;;;;4.12;100.00;99888.75;5065954;28;20053;-81
2022/02/02 06:14:42;;;;;;;42.60;40.30;;;;;;;4.14;100.00;99885.78;5059299;28;20055;-80
2022/02/02 06:17:15;;;;;;;45.35;42.92;;;;;;;4.22;100.00;99915.75;5063851;28;20047;-80
2022/02/02 06:19:50;;;;;;;33.70;31.88;;;;;;;4.22;100.00;99918.44;5058941;28;20052;-80
2022/02/02 06:22:20;;;;;;;27.83;26.30;;;;;;;4.26;100.00;99916.06;5058314;28;20508;-81
2022/02/02 06:24:57;;;;;;;30.33;28.63;;;;;;;4.28;100.00;99916.63;5071971;28;20465;-82
2022/02/02 06:27:36;;;;;;;26.60;25.10;;;;;;;4.28;100.00;99921.19;5072589;28;20036;-81
2022/02/02 06:30:11;;;;;;;23.42;22.13;;;;;;;4.21;100.00;99937.56;5056977;28;20049;-81
2022/02/02 06:32:48;;;;;;;22.77;21.48;;;;;;;4.18;100.00;99935.38;5063661;28;20051;-81
2022/02/02 06:35:23;;;;;;;21.90;20.65;;;;;;;4.16;100.00;99949.09;5064804;28;20044;-81
2022/02/02 06:37:56;;;;;;;18.70;17.60;;;;;;;4.09;100.00;99938.53;5062328;28;20382;-82
2022/02/02 06:40:24;;;;;;;19.33;18.23;;;;;;;4.08;100.00;99950.38;5063251;28;20599;-82
2022/02/02 06:42:58;;;;;;;17.90;16.80;;;;;;;4.10;100.00;99960.88;5066962;28;20048;-81
2022/02/02 06:45:31;;;;;;;16.60;15.60;;;;;;;4.14;100.00;99974.66;5067183;28;20052;-81
2022/02/02 06:48:05;;;;;;;18.77;17.67;;;;;;;4.12;100.00;99974.13;5055157;28;20505;-82
2022/02/02 06:50:39;;;;;;;15.68;14.73;;;;;;;4.15;100.00;99970.91;5069780;28;20404;-81
2022/02/02 06:53:23;;;;;;;16.65;15.65;;;;;;;4.13;100.00;99978.41;5065589;28;20044;-81
2022/02/02 06:56:11;;;;;;;13.77;12.90;;;;;;;4.13;100.00;99989.19;5063657;28;20049;-81
2022/02/02 06:59:08;;;;;;;15.75;14.77;;;;;;;4.01;100.00;99990.16;5062171;28;20051;-82
2022/02/02 07:01:53;;;;;;;15.05;14.15;;;;;;;4.09;100.00;100007.75;5060070;28;20048;-80
2022/02/02 07:04:55;;;;;;;13.15;12.35;;;;;;;4.08;100.00;100016.88;5056019;28;20053;-81
2022/02/02 07:07:40;;;;;;;;;;;;;;;4.07;100.00;100020.63;5066801;28;20432;-82
2022/02/02 07:10:20;;;;;;;16.88;15.88;;;;;;;4.09;100.00;100048.13;5055242;28;19928;-81
2022/02/02 07:13:09;;;;;;;15.93;14.93;;;;;;;3.96;100.00;100041.25;5060917;28;20501;-82
2022/02/02 07:15:58;;;;;;;14.80;13.90;;;;;;;4.02;100.00;100059.09;5066069;28;20051;-81
2022/02/02 07:18:39;;;;;;;13.88;12.98;;;;;;;4.08;100.00;100065.34;5066594;28;20488;-82
2022/02/02 07:21:25;;;;;;;11.02;10.32;;;;;;;4.05;100.00;100076.63;5063132;28;20048;-80
2022/02/02 07:24:18;;;;;;;10.88;10.18;;;;;;;4.06;100.00;100059.38;5060062;28;20048;-82
2022/02/02 07:29:42;;;;;;;8.13;7.53;;;;;;;4.07;100.00;100086.09;5056156;28;20051;-81
2022/02/02 07:32:14;;;;;;;8.13;7.53;;;;;;;4.01;100.00;100081.69;5056069;28;20053;-82
2022/02/02 07:35:01;;;;;;;8.27;7.67;;;;;;;4.08;100.00;100103.06;5059790;28;20390;-81
2022/02/02 07:37:37;;;;;;;6.70;6.20;;;;;;;4.06;100.00;100105.16;5063365;28;20060;-82
2022/02/02 07:40:12;;;;;;;5.47;5.07;;;;;;;4.11;100.00;100105.22;5052054;28;20044;-80
2022/02/02 07:42:48;;;;;;;6.57;6.07;;;;;;;4.08;100.00;100109.25;5063128;28;20045;-81
2022/02/02 07:45:22;;;;;;;5.80;5.40;;;;;;;4.12;100.00;100111.47;5060726;28;20060;-83
2022/02/02 07:47:59;;;;;;;6.55;6.05;;;;;;;4.08;100.00;100116.50;5060913;28;20055;-82
2022/02/02 07:50:33;;;;;;;5.73;5.33;;;;;;;4.15;100.00;100119.03;5054363;28;20048;-81
2022/02/02 07:53:09;;;;;;;5.57;5.18;;;;;;;4.10;100.00;100119.75;5057568;28;20053;-81
2022/02/02 07:55:47;;;;;;;4.80;4.50;;;;;;;4.09;100.00;100145.88;5053779;28;20045;-81
2022/02/02 07:58:24;;;;;;;5.50;5.10;;;;;;;4.10;100.00;100141.31;5045126;28;20041;-82
2022/02/02 08:00:58;;;;;;;4.47;4.18;;;;;;;4.08;100.00;100129.97;5054807;28;20037;-80
2022/02/02 08:03:28;;;;;;;5.68;5.28;;;;;;;4.09;100.00;100131.63;5057132;28;20497;-84
2022/02/02 08:06:02;;;;;;;5.38;4.97;;;;;;;4.13;100.00;100153.47;5064096;28;20051;-81
2022/02/02 08:08:38;;;;;;;4.18;3.88;;;;;;;4.08;100.00;100173.06;5056162;28;20052;-82
2022/02/02 08:11:13;;;;;;;4.70;4.40;;;;;;;4.14;100.00;100179.34;5049737;28;20061;-81
2022/02/02 08:13:48;;;;;;;4.50;4.20;;;;;;;4.13;100.00;100178.53;5056474;28;20045;-82
2022/02/02 08:16:22;;;;;;;4.20;3.90;;;;;;;4.20;100.00;100186.44;5051398;28;20990;-81
2022/02/02 08:18:56;;;;;;;3.20;3.00;;;;;;;4.16;100.00;100196.06;5050829;28;20535;-80
2022/02/02 08:21:24;;;;;;;3.15;2.95;;;;;;;4.13;100.00;100200.06;5042001;28;20119;-80
2022/02/02 08:23:57;;;;;;;3.35;3.15;;;;;;;4.11;100.00;100206.75;5041191;28;20067;-80
2022/02/02 08:26:27;;;;;;;3.17;2.97;;;;;;;4.07;100.00;100209.97;5040242;28;20052;-81
2022/02/02 08:28:58;;;;;;;3.05;2.85;;;;;;;4.06;100.00;100215.56;5041353;28;20057;-81
2022/02/02 08:31:31;;;;;;;2.80;2.60;;;;;;;4.06;100.00;100226.34;5034262;28;20075;-82
2022/02/02 08:34:09;;;;;;;2.38;2.28;;;;;;;4.06;100.00;100229.88;5040722;28;20048;-81
2022/02/02 08:36:45;;;;;;;2.03;1.92;;;;;;;4.13;100.00;100228.88;5037603;28;20051;-80
2022/02/02 08:39:27;;;;;;;2.20;2.10;;;;;;;4.09;100.00;100239.34;5037152;28;20060;-81
2022/02/02 08:42:04;;;;;;;2.20;2.10;;;;;;;4.15;100.00;100275.22;5041131;28;20041;-81
2022/02/02 08:44:45;;;;;;;2.08;1.98;;;;;;;4.20;100.00;100262.66;5038907;28;20057;-80
2022/02/02 08:47:22;;;;;;;2.10;2.00;;;;;;;4.13;100.00;100274.66;5041458;28;20048;-80
2022/02/02 08:49:58;;;;;;;1.90;1.80;;;;;;;4.16;100.00;100272.28;5042079;28;20048;-81
2022/02/02 08:52:40;;;;;;;1.80;1.70;;;;;;;4.20;100.00;100281.50;5037911;28;20063;-80
2022/02/02 08:55:08;;;;;;;2.00;1.90;;;;;;;4.17;100.00;100314.31;5040817;28;20833;-80
2022/02/02 08:57:45;;;;;;;1.63;1.52;;;;;;;4.24;100.00;100285.34;5035885;28;20048;-80
2022/02/02 09:00:22;;;;;;;1.70;1.60;;;;;;;4.20;100.00;100261.84;5035943;28;20056;-82
2022/02/02 09:05:18;;;;;;;1.65;1.55;;;;;;;4.25;100.00;100284.28;5049159;28;20041;-80
2022/02/02 09:05:41;;;;;;;1.50;1.40;;;;;;;4.24;100.00;100288.03;5052952;28;20053;-80
2022/02/02 09:08:18;;;;;;;1.50;1.40;;;;;;;4.23;100.00;100299.06;5041517;28;20061;-81
2022/02/02 09:25:05;;;;;;;1.30;1.30;;;;;;;4.31;100.00;100305.88;5047103;28;20056;-79
2022/02/02 09:33:52;;;;;;;1.60;1.50;;;;;;;4.39;100.00;100319.75;5053132;28;20053;-80
2022/02/02 09:36:24;;;;;;;1.50;1.40;;;;;;;4.25;100.00;100318.47;5043235;28;20053;-80
2022/02/02 09:39:00;;;;;;;1.30;1.30;;;;;;;4.36;100.00;100330.22;5042733;28;20056;-81
2022/02/02 09:41:43;;;;;;;1.35;1.35;;;;;;;4.31;100.00;100336.34;5042316;28;20409;-80
2022/02/02 09:44:16;;;;;;;1.30;1.30;;;;;;;4.37;100.00;100366.88;5048810;28;20064;-81
2022/02/02 09:46:58;;;;;;;1.20;1.20;;;;;;;4.36;100.00;100357.94;5048674;28;20394;-81
2022/02/02 09:49:38;;;;;;;1.13;1.13;;;;;;;4.42;100.00;100369.66;5044732;28;20052;-82
2022/02/02 09:52:11;;;;;;;1.30;1.30;;;;;;;4.41;100.00;100368.81;5048377;28;20044;-80
2022/02/02 09:54:48;;;;;;;1.48;1.38;;;;;;;4.46;100.00;100375.34;5054918;28;20485;-82
2022/02/02 10:00:32;;;;;;;1.20;1.20;;;;;;;4.46;100.00;100381.56;5053500;28;20055;-81
2022/02/02 10:03:33;;;;;;;1.00;1.00;;;;;;;4.45;100.00;100392.56;5043503;28;20059;-81
2022/02/02 10:06:16;;;;;;;1.30;1.30;;;;;;;4.49;100.00;100393.72;5052294;28;20088;-81
2022/02/02 10:12:05;;;;;;;1.00;1.00;;;;;;;4.60;100.00;100425.97;5047972;28;20048;-81
2022/02/02 10:14:51;;;;;;;1.00;1.00;;;;;;;4.56;100.00;100405.97;5053824;28;20056;-81
2022/02/02 10:17:30;;;;;;;1.00;1.00;;;;;;;4.58;100.00;100430.81;5039336;28;20044;-81
2022/02/02 10:20:23;;;;;;;1.05;1.05;;;;;;;4.68;100.00;100442.78;5045369;28;20032;-81
2022/02/02 10:22:54;;;;;;;1.00;1.00;;;;;;;4.58;100.00;100449.66;5043362;28;20491;-81
2022/02/02 10:25:30;;;;;;;0.90;0.90;;;;;;;4.53;100.00;100452.28;5043664;28;20060;-81
2022/02/02 10:28:08;;;;;;;1.00;1.00;;;;;;;4.61;100.00;100461.81;5048763;28;20051;-81
2022/02/02 10:30:43;;;;;;;;;;;;;;;4.60;100.00;100479.06;5058839;28;20064;-80
2022/02/02 10:33:20;;;;;;;0.98;0.98;;;;;;;4.62;100.00;100468.03;5048979;28;19928;-82
2022/02/02 10:35:59;;;;;;;1.10;1.10;;;;;;;4.74;100.00;100469.56;5048066;28;20501;-81
2022/02/02 10:38:35;;;;;;;1.00;1.00;;;;;;;4.76;100.00;100472.84;5046080;28;20313;-80
2022/02/02 10:41:18;;;;;;;0.90;0.90;;;;;;;4.68;100.00;100481.34;5042731;28;20056;-79
2022/02/02 10:43:53;;;;;;;0.70;0.70;;;;;;;4.69;100.00;100501.84;5045184;28;20048;-81
2022/02/02 10:46:28;;;;;;;0.80;0.80;;;;;;;4.62;100.00;100492.31;5049930;28;20048;-81
2022/02/02 10:49:02;;;;;;;0.70;0.70;;;;;;;4.68;100.00;100502.91;5043600;28;20060;-81
2022/02/02 10:51:41;;;;;;;0.80;0.80;;;;;;;4.68;100.00;100519.09;5035961;28;20048;-82
2022/02/02 10:54:28;;;;;;;0.65;0.65;;;;;;;4.52;100.00;100512.63;5036914;28;20520;-83
2022/02/02 10:57:07;;;;;;;0.70;0.70;;;;;;;4.60;100.00;100516.81;5040658;28;20709;-83
2022/02/02 11:08:17;;;;;;;0.80;0.80;;;;;;;4.80;100.00;100532.47;5008358;28;20343;-81
2022/02/02 11:10:51;;;;;;;0.80;0.80;;;;;;;4.72;100.00;100514.84;5041871;28;20079;-82
2022/02/02 11:13:19;;;;;;;0.65;0.65;;;;;;;4.76;100.00;100544.81;5061885;28;20057;-80
2022/02/02 11:15:56;;;;;;;0.57;0.57;;;;;;;4.86;100.00;100546.84;5044940;28;20079;-81
2022/02/02 11:18:35;;;;;;;0.70;0.70;;;;;;;4.77;100.00;100541.88;5038008;28;20057;-81
2022/02/02 11:21:09;;;;;;;0.60;0.60;;;;;;;4.82;100.00;100546.56;5048929;28;20064;-82
2022/02/02 11:23:43;;;;;;;0.70;0.70;;;;;;;4.87;100.00;100562.78;5040779;28;20044;-81
2022/02/02 11:26:37;;;;;;;0.60;0.60;;;;;;;4.84;100.00;100552.50;5044393;28;20060;-81
2022/02/02 11:29:06;;;;;;;0.60;0.60;;;;;;;4.77;100.00;100551.84;5041881;28;20055;-81
2022/02/02 11:32:05;;;;;;;0.60;0.60;;;;;;;4.94;100.00;100565.34;5038994;28;20170;-82
2022/02/02 11:34:40;;;;;;;0.63;0.63;;;;;;;4.93;100.00;100569.13;5038612;28;20059;-82
2022/02/02 11:37:14;;;;;;;0.60;0.60;;;;;;;5.05;100.00;100569.00;5043944;28;20044;-82
2022/02/02 11:40:06;;;;;;;0.50;0.50;;;;;;;5.01;100.00;100584.84;5039574;28;20063;-81
2022/02/02 11:42:51;;;;;;;0.60;0.60;;;;;;;4.87;100.00;100572.78;5042932;28;20060;-81
2022/02/02 11:45:36;;;;;;;0.50;0.50;;;;;;;4.98;100.00;100584.56;5037879;28;20052;-81
2022/02/02 11:48:17;;;;;;;0.60;0.60;;;;;;;5.12;100.00;100593.94;5045440;28;20071;-82
2022/02/02 11:50:53;;;;;;;0.60;0.60;;;;;;;5.16;100.00;100602.38;5046501;28;20045;-82
2022/02/02 11:54:01;;;;;;;0.60;0.60;;;;;;;5.30;100.00;100602.84;5039663;28;20055;-80
2022/02/02 11:57:10;;;;;;;0.50;0.50;;;;;;;5.17;100.00;100615.59;5037446;28;20049;-82
2022/02/02 11:59:56;;;;;;;0.55;0.55;;;;;;;5.25;100.00;100630.59;5035707;28;20685;-81
2022/02/02 12:02:49;;;;;;;0.50;0.50;;;;;;;5.10;100.00;100629.25;5034317;28;20067;-82
2022/02/02 12:08:26;;;;;;;0.47;0.47;;;;;;;5.12;100.00;100631.69;5042385;28;20094;-83
2022/02/02 12:11:22;;;;;;;0.57;0.57;;;;;;;5.10;100.00;100623.84;5037620;28;20051;-83
2022/02/02 12:46:55;;;;;;;0.40;0.40;;;;;;;5.37;100.00;100652.91;5016363;28;20049;-81
2022/02/02 12:49:35;;;;;;;0.50;0.50;;;;;;;5.19;100.00;100662.06;5048916;28;21395;-81
2022/02/02 12:58:02;;;;;;;0.40;0.40;;;;;;;5.17;100.00;100661.47;5050331;28;20041;-80
2022/02/02 13:00:40;;;;;;;0.43;0.43;;;;;;;5.08;100.00;100685.34;5046797;28;20052;-81
2022/02/02 13:03:14;;;;;;;0.30;0.30;;;;;;;4.96;100.00;100689.13;5042295;28;20045;-80
2022/02/02 13:05:47;;;;;;;0.30;0.30;;;;;;;4.78;100.00;100693.69;5046263;28;20052;-81
2022/02/02 13:08:22;;;;;;;0.40;0.40;;;;;;;4.75;100.00;100702.25;5044817;28;20057;-80
2022/02/02 13:10:56;;;;;;;0.30;0.30;;;;;;;4.75;100.00;100704.94;5047379;28;20057;-82
2022/02/02 13:13:30;;;;;;;0.30;0.30;;;;;;;4.74;100.00;100701.44;5043384;28;20044;-81
2022/02/02 13:16:11;;;;;;;0.40;0.40;;;;;;;4.69;100.00;100706.72;5041982;28;20505;-80
2022/02/02 13:18:47;;;;;;;0.40;0.40;;;;;;;4.69;100.00;100711.31;5040380;28;20041;-81
2022/02/02 13:21:25;;;;;;;0.40;0.40;;;;;;;4.66;100.00;100714.47;5036787;28;20061;-81
2022/02/02 13:24:10;;;;;;;0.40;0.40;;;;;;;4.58;100.00;100715.66;5035589;28;20052;-80
2022/02/02 13:26:44;;;;;;;0.40;0.40;;;;;;;4.43;100.00;100722.41;5037924;28;20048;-82
2022/02/02 13:29:25;;;;;;;0.40;0.40;;;;;;;4.32;100.00;100720.50;5036672;28;20053;-81
2022/02/02 13:32:09;;;;;;;0.50;0.50;;;;;;;4.37;100.00;100731.41;5039192;28;20491;-81
2022/02/02 13:34:50;;;;;;;0.38;0.38;;;;;;;4.39;100.00;100726.63;5042984;28;20040;-80
2022/02/02 13:37:42;;;;;;;0.50;0.50;;;;;;;4.41;100.00;100734.47;5041534;28;20059;-81
2022/02/02 13:43:23;;;;;;;0.60;0.60;;;;;;;4.58;100.00;100729.97;5055078;28;20055;-79
2022/02/02 13:49:14;;;;;;;0.43;0.43;;;;;;;4.92;100.00;100743.56;5034444;28;20044;-81
2022/02/02 13:52:10;;;;;;;0.50;0.50;;;;;;;5.00;100.00;100747.78;5034816;28;20607;-81
2022/02/02 13:54:46;;;;;;;0.40;0.40;;;;;;;5.07;100.00;100756.53;5040928;28;20374;-80
2022/02/02 14:31:23;;;;;;;0.30;0.30;;;;;;;4.83;100.00;100830.47;5035479;28;20059;-80
2022/02/02 14:33:57;;;;;;;0.32;0.32;;;;;;;4.79;100.00;100842.78;5037482;28;20621;-80
2022/02/02 14:36:34;;;;;;;0.30;0.30;;;;;;;4.83;100.00;100833.97;5039295;28;20045;-81
2022/02/02 14:39:15;;;;;;;0.30;0.30;;;;;;;4.85;100.00;100856.16;5034037;28;20063;-80
2022/02/02 14:41:53;;;;;;;0.38;0.38;;;;;;;4.90;100.00;100871.59;5033389;28;20542;-82
2022/02/02 14:44:30;;;;;;;;;;;;;;;4.76;100.00;100888.06;5034600;28;20057;-81
2022/02/02 14:47:05;;;;;;;0.30;0.30;;;;;;;4.68;100.00;100868.72;5024359;28;20608;-80
2022/02/02 14:49:46;;;;;;;0.50;0.50;;;;;;;4.64;100.00;100879.16;5038212;28;20048;-82
2022/02/02 14:52:29;;;;;;;0.50;0.50;;;;;;;4.58;100.00;100880.91;5034098;28;20056;-82
2022/02/02 15:09:39;;;;;;;0.40;0.40;;;;;;;3.97;100.00;100917.16;5037790;28;20430;-80
2022/02/02 15:29:42;;;;;;;0.80;0.80;;;;;;;3.67;100.00;100926.84;5034534;28;20052;-80
2022/02/02 15:32:15;;;;;;;0.80;0.80;;;;;;;3.66;100.00;100940.53;5035700;28;20486;-81
2022/02/02 15:34:52;;;;;;;0.70;0.70;;;;;;;3.72;100.00;100939.66;5044355;28;20055;-82
2022/02/02 15:37:27;;;;;;;0.60;0.60;;;;;;;3.74;100.00;100948.31;5032648;28;20428;-80
2022/02/02 15:40:06;;;;;;;0.70;0.70;;;;;;;3.70;100.00;100944.41;5038469;28;20053;-80
2022/02/02 15:42:58;;;;;;;0.50;0.50;;;;;;;3.68;100.00;100954.59;5034633;28;20048;-79
2022/02/02 16:05:26;;;;;;;0.40;0.40;;;;;;;3.40;100.00;101002.53;5038335;28;20059;-80
2022/02/02 16:08:05;;;;;;;0.47;0.47;;;;;;;3.42;100.00;101007.69;5041763;28;20837;-81
2022/02/02 16:10:49;;;;;;;0.60;0.60;;;;;;;3.40;100.00;101005.22;5043049;28;20298;-81
2022/02/02 16:13:33;;;;;;;0.50;0.50;;;;;;;3.49;100.00;101013.00;5031568;28;20512;-81
2022/02/02 16:16:15;;;;;;;0.40;0.40;;;;;;;3.48;100.00;101014.03;5035963;28;20044;-80
2022/02/02 16:18:54;;;;;;;0.60;0.60;;;;;;;3.48;100.00;101024.81;5043323;28;20056;-80
2022/02/02 16:33:16;;;;;;;0.50;0.50;;;;;;;3.39;100.00;101033.16;5040570;28;20048;-80
2022/02/02 16:38:40;;;;;;;0.40;0.40;;;;;;;3.24;100.00;101048.84;5039567;28;20523;-80
2022/02/02 16:44:02;;;;;;;0.60;0.60;;;;;;;3.11;100.00;101057.88;5040740;28;20040;-79
2022/02/02 16:46:35;;;;;;;0.50;0.50;;;;;;;3.09;100.00;101067.19;5040593;28;20044;-79
2022/02/02 16:49:09;;;;;;;0.57;0.57;;;;;;;2.96;100.00;101074.34;5041692;28;20065;-81
2022/02/02 16:51:37;;;;;;;0.40;0.40;;;;;;;3.01;100.00;101065.59;5040769;28;20055;-79
2022/02/02 16:54:09;;;;;;;0.40;0.40;;;;;;;2.89;100.00;101073.56;5049142;28;20056;-80
2022/02/02 16:56:58;;;;;;;0.50;0.50;;;;;;;2.92;100.00;101083.06;5037645;28;20048;-81
2022/02/02 17:25:59;;;;;;;0.68;0.68;;;;;;;2.71;100.00;101123.53;5041125;28;20147;-79
2022/02/02 17:30:55;;;;;;;0.70;0.70;;;;;;;2.80;100.00;101131.31;5032682;28;20061;-79
2022/02/02 17:33:29;;;;;;;0.60;0.60;;;;;;;2.76;100.00;101141.66;5037107;28;20067;-79
2022/02/02 17:36:14;;;;;;;0.70;0.70;;;;;;;2.72;100.00;101145.84;5043896;28;20294;-80
2022/02/02 17:38:51;;;;;;;0.75;0.75;;;;;;;2.54;100.00;101146.56;5042061;28;20409;-79
2022/02/02 17:41:36;;;;;;;0.60;0.60;;;;;;;2.57;100.00;101150.69;5040519;28;20056;-79
2022/02/02 17:44:23;;;;;;;0.80;0.80;;;;;;;2.60;100.00;101152.97;5038011;28;20057;-78
2022/02/02 18:13:11;;;;;;;0.82;0.82;;;;;;;2.12;100.00;101187.22;5036853;28;20052;-79
2022/02/02 18:18:50;;;;;;;0.73;0.73;;;;;;;2.10;100.00;101204.56;5046677;28;20053;-79
2022/02/02 18:21:25;;;;;;;0.80;0.80;;;;;;;2.09;100.00;101200.25;5042520;28;20412;-79
2022/02/02 18:24:06;;;;;;;0.98;0.98;;;;;;;1.98;100.00;101191.00;5042890;28;20055;-79
2022/02/02 18:26:44;;;;;;;1.00;1.00;;;;;;;1.99;100.00;101196.16;5046788;28;20033;-78
2022/02/02 18:29:18;;;;;;;0.90;0.90;;;;;;;1.94;100.00;101203.19;5042047;28;20055;-79
2022/02/02 18:34:44;;;;;;;0.93;0.93;;;;;;;1.78;100.00;101202.59;5055453;28;20064;-78
2022/02/02 18:38:04;;;;;;;0.90;0.90;;;;;;;1.75;100.00;101202.16;5046392;28;20049;-79
2022/02/02 18:41:38;;;;;;;0.90;0.90;;;;;;;1.72;100.00;101205.28;5043827;28;20048;-79
2022/02/02 18:46:49;;;;;;;0.90;0.90;;;;;;;1.62;100.00;101213.75;5014578;28;20052;-79